Terminal Aerodrome Forecast
Issued by NWS

Home | Current Version | Previous Version | Text Only | Print | Product List | Glossary On
Versions: 1 2 3 4 5 6 7 8 9 10 11 12 13 14 15 16 17 18 19 20 21 22 23
641
FTUS45 KRIW 302339
TAFPNA
TAF
KPNA 302339Z 3100/3124 30010G15KT P6SM VCSH FEW080 SCT110
     FM310200 30008KT P6SM SCT110
     FM312000 30011G18KT P6SM VCTS SCT080CB
      AMD LTD TO CLD VIS AND WIND=

USA.gov is the U.S. government's official web portal to all federal, state and local government web resources and services.